Weather at Lazzarini Heliport

Public forecast

Using degrees Fahrenheit for public forecast. Weather courtesy of forecast.io.

Closest aviation weather report (METAR) to Lazzarini Heliport

Closest report is Lehigh Valley International Airport, 9.5 nm (17.6 km) SSW. Retrieved 2021/06/23 01:51 UTC (23 minutes ago):

KABE 230151Z 31003KT 10SM FEW055 13/09 A2997 RMK AO2 SLP147 T01330089

Closest aviation forecast (TAF) to Lazzarini Heliport

Closest forecast is Lehigh Valley International Airport, 9.5 nm (17.6 km) SSW. Retrieved 2021-06-23 00:30 UTC (2 hours ago):

TAF KABE 222328Z 2300/2324 32007KT P6SM SCT050 BKN200 FM230200 VRB02KT 6SM BR SKC FM231200 33005KT P6SM FEW060